No 32takemaru — JG5746 — position and weather

sailwx.info

Track history (hours):
 
Tides and Currents Weather Stations Pressure Air Temp Water Temp Dewpoint Dewpoint Depression Visibility Wind Speed Wind Dir Waves Ship Positions

No 32takemaru

Last reported at 2018-Sep-19 07:09 UTC. Time now 2018-Sep-19 12:32 UTC.
Position N 34°39' E 135°28'.

Length 38 m; draft 2.8 m.

Type: Tug. MMSI: 431000341.

Date/timePositionNaut miles runAvg speedWind from/ knotsBaromVisibWave heightAir tempDewpointWater temp
2018-Sep-19 07:09N 34°39' E 135°28'0 0.0
2018-Sep-19 06:45N 34°39' E 135°28'0 0.0
2018-Sep-19 06:26N 34°39' E 135°28'0 0.0
2018-Sep-19 05:53N 34°39' E 135°28'0 0.0
2018-Sep-19 05:30N 34°39' E 135°28'0 0.0
2018-Sep-19 04:57N 34°39' E 135°28'0 0.0
2018-Sep-19 04:27N 34°39' E 135°28'0 0.0
2018-Sep-19 03:11N 34°39' E 135°28'0 0.0
2018-Sep-19 02:55N 34°39' E 135°28'0 0.0
2018-Sep-19 01:07N 34°39' E 135°28'0 6.9
2018-Sep-19 01:02N 34°39' E 135°27'0 8.7
2018-Sep-19 01:00N 34°39' E 135°27'4 8.3
2018-Sep-19 00:29N 34°36' E 135°23'3 5.8
2018-Sep-19 00:00N 34°33' E 135°25'1 1.2
2018-Sep-18 23:29N 34°33' E 135°25'3 5.4
2018-Sep-18 23:00N 34°34' E 135°22'0 0.9
2018-Sep-18 22:30N 34°34' E 135°22'5 9.5
2018-Sep-18 22:01N 34°38' E 135°24'0 9.9
2018-Sep-18 22:00N 34°38' E 135°24'3 0.4
2018-Sep-18 13:07N 34°39' E 135°28'0 0.0
2018-Sep-18 07:18N 34°39' E 135°28'0 0.0
2018-Sep-18 06:59N 34°39' E 135°28'0 0.0
2018-Sep-18 06:27N 34°39' E 135°28'0 0.0
2018-Sep-18 05:46N 34°39' E 135°28'0 0.0
2018-Sep-18 05:08N 34°39' E 135°28'0 0.0
2018-Sep-18 04:53N 34°39' E 135°28'0 0.0
2018-Sep-18 04:28N 34°39' E 135°28'0 0.0
2018-Sep-18 03:58N 34°39' E 135°28'0 0.0
2018-Sep-18 03:29N 34°39' E 135°28'0 0.0
2018-Sep-18 02:59N 34°39' E 135°28'0 0.0
2018-Sep-18 02:25N 34°39' E 135°28'1 3.1
2018-Sep-18 02:03N 34°39' E 135°27'111.1
2018-Sep-18 01:59N 34°39' E 135°26'5 9.1
2018-Sep-18 01:29N 34°35' E 135°23'2 2.8
2018-Sep-18 00:50N 34°33' E 135°25'0 0.3
2018-Sep-18 00:27N 34°33' E 135°25'0 0.0
2018-Sep-18 00:03N 34°33' E 135°25'0 0.0
2018-Sep-17 23:58N 34°33' E 135°25'1 1.3
2018-Sep-17 23:30N 34°33' E 135°24'3 6.8
2018-Sep-17 23:00N 34°33' E 135°20'0 0.7
2018-Sep-17 22:30N 34°34' E 135°20'2 4.9
2018-Sep-17 22:03N 34°36' E 135°22'110.9
2018-Sep-17 22:00N 34°36' E 135°22'5 9.4
2018-Sep-17 21:30N 34°39' E 135°27'1 1.9
2018-Sep-17 20:58N 34°39' E 135°28'0 0.0
2018-Sep-17 20:25N 34°39' E 135°28'0 0.0
2018-Sep-17 19:56N 34°39' E 135°28'0 0.0
2018-Sep-17 19:25N 34°39' E 135°28'0 0.0
2018-Sep-17 19:03N 34°39' E 135°28'0 0.0
2018-Sep-17 18:55N 34°39' E 135°28'0 0.0
2018-Sep-17 18:18N 34°39' E 135°28'0 0.0
2018-Sep-17 17:22N 34°39' E 135°28'0 0.0
2018-Sep-17 17:02N 34°39' E 135°28'0 0.0
2018-Sep-17 16:44N 34°39' E 135°28'0 0.0
2018-Sep-17 16:01N 34°39' E 135°28'0 0.0
2018-Sep-17 16:00N 34°39' E 135°28'0 0.0
2018-Sep-17 14:52N 34°39' E 135°28'0 0.0
2018-Sep-17 13:22N 34°39' E 135°28'0 0.0
2018-Sep-17 11:40N 34°39' E 135°28'0 0.0
2018-Sep-17 11:20N 34°39' E 135°28'0 0.0
2018-Sep-17 10:49N 34°39' E 135°28'0 0.0
2018-Sep-17 10:30N 34°39' E 135°28'2 3.4
2018-Sep-17 10:03N 34°39' E 135°26'010.5
2018-Sep-17 10:01N 34°39' E 135°26'5 9.2
2018-Sep-17 09:28N 34°34' E 135°23'2 5.2
2018-Sep-17 09:00N 34°32' E 135°24'2 3.8
2018-Sep-17 08:30N 34°34' E 135°24'0 0.2
2018-Sep-17 08:03N 34°34' E 135°24'110.9
2018-Sep-17 07:58N 34°33' E 135°24'0 0.5
2018-Sep-17 07:24N 34°33' E 135°23'1 1.3
2018-Sep-17 06:57N 34°33' E 135°23'2 0.5
2018-Sep-17 02:38N 34°31' E 135°24'1 3.5
2018-Sep-17 02:28N 34°32' E 135°24'1 2.4
2018-Sep-17 02:00N 34°33' E 135°23'0 0.6
2018-Sep-17 01:30N 34°33' E 135°23'0 0.2
2018-Sep-17 00:59N 34°33' E 135°23'5 9.5
2018-Sep-17 00:30N 34°38' E 135°23'4 8.2
2018-Sep-17 00:02N 34°39' E 135°28'0 0.0
2018-Sep-17 00:00N 34°39' E 135°28'0 0.0
2018-Sep-16 23:27N 34°39' E 135°28'0 0.0
2018-Sep-16 22:56N 34°39' E 135°28'0 0.0
2018-Sep-16 22:25N 34°39' E 135°28'0 0.0
2018-Sep-16 21:59N 34°39' E 135°28'0 0.0
2018-Sep-16 21:24N 34°39' E 135°28'0 0.0
2018-Sep-16 20:58N 34°39' E 135°28'0 0.0
2018-Sep-16 20:29N 34°39' E 135°28'0 0.0
2018-Sep-16 19:56N 34°39' E 135°28'0 0.0
2018-Sep-16 19:26N 34°39' E 135°28'0 0.0
2018-Sep-16 12:45N 34°39' E 135°28'0 0.0
2018-Sep-16 12:21N 34°39' E 135°28'0 0.0
2018-Sep-16 11:03N 34°39' E 135°28'0 0.0
2018-Sep-16 06:16N 34°39' E 135°28'0 0.0
2018-Sep-16 06:04N 34°39' E 135°28'0 0.0
2018-Sep-16 05:58N 34°39' E 135°28'0 0.0
2018-Sep-16 05:23N 34°39' E 135°28'0 0.0
2018-Sep-16 04:22N 34°39' E 135°28'0 0.0
2018-Sep-16 04:03N 34°39' E 135°28'0 0.0
2018-Sep-16 03:59N 34°39' E 135°28'0 0.0
2018-Sep-16 02:43N 34°39' E 135°28'0 0.0
2018-Sep-16 02:27N 34°39' E 135°28'0 0.0
2018-Sep-16 02:02N 34°39' E 135°28'0 0.1
2018-Sep-16 01:41N 34°39' E 135°28'1 7.8
2018-Sep-16 01:31N 34°39' E 135°26'4 9.2
2018-Sep-16 01:03N 34°35' E 135°23'111.8
2018-Sep-16 01:00N 34°35' E 135°23'3 6.7
2018-Sep-16 00:30N 34°31' E 135°25'0 0.3
2018-Sep-16 00:03N 34°31' E 135°25'0 0.1
2018-Sep-16 00:00N 34°31' E 135°25'3 5.2
2018-Sep-15 23:27N 34°34' E 135°24'410.3
2018-Sep-15 23:03N 34°38' E 135°24'110.2
2018-Sep-15 23:00N 34°38' E 135°24'3 6.7
2018-Sep-15 22:31N 34°39' E 135°28'0 0.0
2018-Sep-15 22:00N 34°39' E 135°28'0 0.0
2018-Sep-15 21:31N 34°39' E 135°28'0 0.0
2018-Sep-15 21:03N 34°39' E 135°28'0 0.0
2018-Sep-15 20:57N 34°39' E 135°28'0 0.0
2018-Sep-15 20:28N 34°39' E 135°28'0 0.0
2018-Sep-15 20:03N 34°39' E 135°28'0 0.0
2018-Sep-15 19:59N 34°39' E 135°28'0 0.0
2018-Sep-15 19:27N 34°39' E 135°28'0 0.0
2018-Sep-15 18:54N 34°39' E 135°28'0 0.0
2018-Sep-15 18:30N 34°39' E 135°28'0 0.0
2018-Sep-15 18:04N 34°39' E 135°28'0 0.0
2018-Sep-15 18:00N 34°39' E 135°28'0 0.0
2018-Sep-15 17:31N 34°39' E 135°28'0 0.0
2018-Sep-15 16:53N 34°39' E 135°28'0 0.0
2018-Sep-15 16:23N 34°39' E 135°28'0 0.0
2018-Sep-15 15:59N 34°39' E 135°28'0 0.0
2018-Sep-15 15:29N 34°39' E 135°28'0 0.0
2018-Sep-15 14:51N 34°39' E 135°28'0 0.0
2018-Sep-15 14:20N 34°39' E 135°28'0 0.0
2018-Sep-15 13:47N 34°39' E 135°28'0 0.0
2018-Sep-15 13:12N 34°39' E 135°28'0 0.0
2018-Sep-15 12:54N 34°39' E 135°28'0 0.0
2018-Sep-15 12:29N 34°39' E 135°28'0 0.0
2018-Sep-15 12:02N 34°39' E 135°28'0 0.0
2018-Sep-15 12:00N 34°39' E 135°28'0 0.0
2018-Sep-15 11:25N 34°39' E 135°28'0 0.0
2018-Sep-15 11:02N 34°39' E 135°28'0 0.0
2018-Sep-15 10:57N 34°39' E 135°28'0 0.0
2018-Sep-15 10:29N 34°39' E 135°28'0 0.0
2018-Sep-15 09:56N 34°39' E 135°28'0 0.0
2018-Sep-15 09:21N 34°39' E 135°28'0 0.0
2018-Sep-15 09:02N 34°39' E 135°28'0 0.0
2018-Sep-15 09:00N 34°39' E 135°28'0 0.0
2018-Sep-15 08:07N 34°39' E 135°28'0 0.0
2018-Sep-15 08:03N 34°39' E 135°28'0 0.0
2018-Sep-15 07:56N 34°39' E 135°28'1 0.9
2018-Sep-15 06:46N 34°38' E 135°27'0 0.0
2018-Sep-15 06:30N 34°38' E 135°27'0 0.0
2018-Sep-15 06:03N 34°38' E 135°27'0 0.0
2018-Sep-15 06:00N 34°38' E 135°27'1 2.1
2018-Sep-15 05:29N 34°39' E 135°26'511.4
2018-Sep-15 05:03N 34°39' E 135°20'0 1.1
2018-Sep-15 05:00N 34°39' E 135°20'3 6.1
2018-Sep-15 04:29N 34°36' E 135°18'3 6.6
2018-Sep-15 04:03N 34°34' E 135°16'0 7.0
2018-Sep-15 04:01N 34°33' E 135°15'3 6.8
2018-Sep-15 03:30N 34°31' E 135°13'3 7.0
2018-Sep-15 03:03N 34°28' E 135°11'0 7.0
2018-Sep-15 03:00N 34°28' E 135°10'3 6.9
2018-Sep-15 02:30N 34°25' E 135°08'3 6.3
2018-Sep-15 02:03N 34°23' E 135°10'0 6.5
2018-Sep-15 01:59N 34°22' E 135°11'3 5.2
2018-Sep-15 01:28N 34°23' E 135°14'2 5.9
2018-Sep-15 01:04N 34°25' E 135°15'0 5.3
2018-Sep-15 01:00N 34°25' E 135°16'1 1.3
2018-Sep-15 00:28N 34°26' E 135°16'0 0.1
2018-Sep-15 00:03N 34°26' E 135°16'0 0.0
2018-Sep-15 00:01N 34°26' E 135°16'0 0.0
2018-Sep-14 23:31N 34°26' E 135°16'0 0.2
2018-Sep-14 23:03N 34°26' E 135°16'0 1.8
2018-Sep-14 23:00N 34°26' E 135°16'0 0.0
2018-Sep-14 22:30N 34°26' E 135°16'0 0.0
2018-Sep-14 22:03N 34°26' E 135°16'0 0.1
2018-Sep-14 21:59N 34°26' E 135°16'0 0.0
2018-Sep-14 21:30N 34°26' E 135°16'0 0.0
2018-Sep-14 21:03N 34°26' E 135°16'0 0.1
2018-Sep-14 21:01N 34°26' E 135°16'0 0.0
2018-Sep-14 20:30N 34°26' E 135°16'0 0.0
2018-Sep-14 20:02N 34°26' E 135°16'0 0.1
2018-Sep-14 19:57N 34°26' E 135°16'0 0.1
2018-Sep-14 19:30N 34°26' E 135°16'0 0.1
2018-Sep-14 18:53N 34°26' E 135°16'0 0.0
2018-Sep-14 18:27N 34°26' E 135°16'0 0.0
2018-Sep-14 18:03N 34°26' E 135°16'0 0.0
2018-Sep-14 17:59N 34°26' E 135°16'0 0.0
2018-Sep-14 17:30N 34°26' E 135°16'0 0.0
2018-Sep-14 17:02N 34°26' E 135°16'0 0.0
2018-Sep-14 17:00N 34°26' E 135°16'0 0.0
2018-Sep-14 16:21N 34°26' E 135°16'0 0.0
2018-Sep-14 16:02N 34°26' E 135°16'0 0.0
2018-Sep-14 16:01N 34°26' E 135°16'0 0.0
2018-Sep-14 15:30N 34°26' E 135°16'0 0.0
2018-Sep-14 15:03N 34°26' E 135°16'0 0.0
2018-Sep-14 15:01N 34°26' E 135°16'0 0.1
2018-Sep-14 14:30N 34°26' E 135°16'0 0.0
2018-Sep-14 13:59N 34°26' E 135°16'0 0.0
2018-Sep-14 13:31N 34°26' E 135°16'0 0.0
2018-Sep-14 13:03N 34°26' E 135°16'0 0.8
2018-Sep-14 13:00N 34°26' E 135°16'0 0.1
2018-Sep-14 12:31N 34°26' E 135°16'0 0.0
2018-Sep-14 12:03N 34°26' E 135°16'0 1.0
2018-Sep-14 12:00N 34°26' E 135°16'0 0.0
2018-Sep-14 11:31N 34°26' E 135°16'0 0.1
2018-Sep-14 11:03N 34°26' E 135°16'0 0.0
2018-Sep-14 11:00N 34°26' E 135°16'0 0.0
2018-Sep-14 10:28N 34°26' E 135°16'0 0.1
2018-Sep-14 10:03N 34°26' E 135°16'0 0.0
2018-Sep-14 10:00N 34°26' E 135°16'0 0.0
2018-Sep-14 09:31N 34°26' E 135°16'0 0.0
2018-Sep-14 09:04N 34°26' E 135°16'0 0.1
2018-Sep-14 08:59N 34°26' E 135°16'0 0.0
2018-Sep-14 08:29N 34°26' E 135°16'0 0.1
2018-Sep-14 08:03N 34°26' E 135°16'0 0.0
2018-Sep-14 07:59N 34°26' E 135°16'0 0.1
2018-Sep-14 07:28N 34°26' E 135°16'0 0.0
2018-Sep-14 07:02N 34°26' E 135°16'0 0.0
2018-Sep-14 06:58N 34°26' E 135°16'0 0.1
2018-Sep-14 06:30N 34°26' E 135°16'0 0.0
2018-Sep-14 06:01N 34°26' E 135°16'0 0.4
2018-Sep-14 06:00N 34°26' E 135°16'0 0.1
2018-Sep-14 05:30N 34°26' E 135°16'0 0.1
2018-Sep-14 05:03N 34°26' E 135°16'0 0.0
2018-Sep-14 05:00N 34°26' E 135°16'0 0.0
2018-Sep-14 04:17N 34°26' E 135°16'0 0.1
2018-Sep-14 04:03N 34°26' E 135°16'0 0.0
2018-Sep-14 03:57N 34°26' E 135°16'0 0.1
2018-Sep-14 03:27N 34°26' E 135°16'0 0.0
2018-Sep-14 03:02N 34°26' E 135°16'0 0.0
2018-Sep-14 02:59N 34°26' E 135°16'0 0.0
2018-Sep-14 02:31N 34°26' E 135°16'0 0.0
2018-Sep-14 02:02N 34°26' E 135°16'0 0.1
2018-Sep-14 01:58N 34°26' E 135°16'0 0.1
2018-Sep-14 01:29N 34°26' E 135°16'0 0.1
2018-Sep-14 00:59N 34°26' E 135°16'0 0.1
2018-Sep-14 00:25N 34°26' E 135°16'0 0.0
2018-Sep-13 23:55N 34°26' E 135°16'0 0.0
2018-Sep-13 23:26N 34°26' E 135°16'0 0.0
2018-Sep-13 23:03N 34°26' E 135°16'0 1.1
2018-Sep-13 23:01N 34°26' E 135°16'0 0.0
2018-Sep-13 22:30N 34°26' E 135°16'0 0.0
2018-Sep-13 22:03N 34°26' E 135°16'0 0.0
2018-Sep-13 22:01N 34°26' E 135°16'0 0.0
2018-Sep-13 21:30N 34°26' E 135°16'0 0.0
2018-Sep-13 21:03N 34°26' E 135°16'0 0.0
2018-Sep-13 21:00N 34°26' E 135°16'0 0.0
2018-Sep-13 20:28N 34°26' E 135°16'0 0.0
2018-Sep-13 20:03N 34°26' E 135°16'0 0.0
2018-Sep-13 20:00N 34°26' E 135°16'0 0.0
2018-Sep-13 19:30N 34°26' E 135°16'0 0.0
2018-Sep-13 19:03N 34°26' E 135°16'0 0.1
2018-Sep-13 19:00N 34°26' E 135°16'0 0.0
2018-Sep-13 18:29N 34°26' E 135°16'0 0.0
2018-Sep-13 18:04N 34°26' E 135°16'0 0.0
2018-Sep-13 17:59N 34°26' E 135°16'0 0.0
2018-Sep-13 17:30N 34°26' E 135°16'0 0.0
2018-Sep-13 17:03N 34°26' E 135°16'0 0.0
2018-Sep-13 17:00N 34°26' E 135°16'0 0.0
2018-Sep-13 16:30N 34°26' E 135°16'0 0.0
2018-Sep-13 16:01N 34°26' E 135°16'0 0.0
2018-Sep-13 15:59N 34°26' E 135°16'0 0.0
2018-Sep-13 15:31N 34°26' E 135°16'0 0.0
2018-Sep-13 15:03N 34°26' E 135°16'0 0.0
2018-Sep-13 15:01N 34°26' E 135°16'0 0.0
2018-Sep-13 14:29N 34°26' E 135°16'0 0.0
2018-Sep-13 14:00N 34°26' E 135°16'0 0.0
2018-Sep-13 13:31N 34°26' E 135°16'0 0.0
2018-Sep-13 13:01N 34°26' E 135°16'0 0.0
2018-Sep-13 13:00N 34°26' E 135°16'0 0.0
2018-Sep-13 12:30N 34°26' E 135°16'0 0.0
2018-Sep-13 12:03N 34°26' E 135°16'0 0.0
2018-Sep-13 11:59N 34°26' E 135°16'0 0.0
2018-Sep-13 11:30N 34°26' E 135°16'0 0.0
2018-Sep-13 10:56N 34°26' E 135°16'0 0.0
2018-Sep-13 10:28N 34°26' E 135°16'0 0.0
2018-Sep-13 10:04N 34°26' E 135°16'0 0.0
2018-Sep-13 10:01N 34°26' E 135°16'0 0.0
2018-Sep-13 09:29N 34°26' E 135°16'0 0.0
2018-Sep-13 09:03N 34°26' E 135°16'0 0.0
2018-Sep-13 08:49N 34°26' E 135°16'0 0.0
2018-Sep-13 08:29N 34°26' E 135°16'0 0.0
2018-Sep-13 07:59N 34°26' E 135°16'0 0.0
2018-Sep-13 07:31N 34°26' E 135°16'0 0.0
2018-Sep-13 07:02N 34°26' E 135°16'0 0.0
2018-Sep-13 06:59N 34°26' E 135°16'0 0.1
2018-Sep-13 06:28N 34°26' E 135°16'0 0.0
2018-Sep-13 05:35N 34°26' E 135°16'0 0.0
2018-Sep-13 05:23N 34°26' E 135°16'0 0.0
2018-Sep-13 05:03N 34°26' E 135°16'0 0.0
2018-Sep-13 05:00N 34°26' E 135°16'0 0.0
2018-Sep-13 04:30N 34°26' E 135°16'0 0.0
2018-Sep-13 04:03N 34°26' E 135°16'0 0.1
2018-Sep-13 04:01N 34°26' E 135°16'0 0.0
2018-Sep-13 03:30N 34°26' E 135°16'0 0.0
2018-Sep-13 03:03N 34°26' E 135°16'0 0.0
2018-Sep-13 03:01N 34°26' E 135°16'0 0.0
2018-Sep-13 02:31N 34°26' E 135°16'0 0.0
2018-Sep-13 01:59N 34°26' E 135°16'0 0.0
2018-Sep-13 01:30N 34°26' E 135°16'0 0.0
2018-Sep-13 01:03N 34°26' E 135°16'0 0.0
2018-Sep-13 01:00N 34°26' E 135°16'0 0.0
2018-Sep-13 00:31N 34°26' E 135°16'0 0.0
2018-Sep-13 00:04N 34°26' E 135°16'0 0.1
2018-Sep-13 00:01N 34°26' E 135°16'0 0.0
2018-Sep-12 23:26N 34°26' E 135°16'0 0.0
2018-Sep-12 08:05N 34°26' E 135°16'0 0.0
2018-Sep-12 07:56N 34°26' E 135°16'0 0.0
2018-Sep-12 07:11N 34°26' E 135°16'0 0.0
2018-Sep-12 07:03N 34°26' E 135°16'0 0.0
2018-Sep-12 07:00N 34°26' E 135°16'0 0.0
2018-Sep-12 06:30N 34°26' E 135°16'0 0.0
2018-Sep-12 06:00N 34°26' E 135°16'0 0.0
2018-Sep-12 05:10N 34°26' E 135°16'0 0.0
2018-Sep-12 05:03N 34°26' E 135°16'0 0.0
2018-Sep-12 04:58N 34°26' E 135°16'0 0.1
2018-Sep-12 04:16N 34°26' E 135°16'0 0.0
2018-Sep-12 03:57N 34°26' E 135°16'0 0.0
2018-Sep-12 02:45N 34°26' E 135°16'0 0.2
2018-Sep-12 02:18N 34°26' E 135°16'0 0.2
2018-Sep-12 02:03N 34°26' E 135°16'0 0.0
2018-Sep-12 02:00N 34°26' E 135°16'0 0.0
2018-Sep-12 01:24N 34°26' E 135°16'0 0.1
2018-Sep-12 01:02N 34°26' E 135°16'0 0.5
2018-Sep-12 00:56N 34°26' E 135°16'1 3.1
2018-Sep-12 00:29N 34°25' E 135°15'2 5.4
2018-Sep-12 00:03N 34°23' E 135°13'0 6.2
2018-Sep-12 00:00N 34°23' E 135°13'2 4.8
2018-Sep-11 23:30N 34°23' E 135°10'2 5.1
2018-Sep-11 23:03N 34°24' E 135°08'0 4.8
2018-Sep-11 23:00N 34°25' E 135°08'3 5.0
2018-Sep-11 22:30N 34°27' E 135°08'2 5.0
2018-Sep-11 22:02N 34°29' E 135°10'0 4.3
2018-Sep-11 22:00N 34°29' E 135°10'2 4.9
2018-Sep-11 21:30N 34°31' E 135°12'2 4.9
2018-Sep-11 21:03N 34°33' E 135°14'0 4.5
2018-Sep-11 20:58N 34°33' E 135°14'2 4.7
2018-Sep-11 20:29N 34°35' E 135°15'2 4.4
2018-Sep-11 20:00N 34°37' E 135°16'4 4.4
2018-Sep-11 19:11N 34°40' E 135°15'1 0.5
2018-Sep-11 17:44N 34°41' E 135°15'8 0.7
2018-Sep-11 06:26N 34°38' E 135°23'5 7.4
2018-Sep-11 05:48N 34°34' E 135°26'0 0.0
2018-Sep-11 05:10N 34°34' E 135°26'0 0.2
2018-Sep-11 05:00N 34°33' E 135°26'1 0.8
2018-Sep-11 03:46N 34°33' E 135°25'2 0.1
2018-Sep-09 23:05N 34°31' E 135°24'0 9.9
2018-Sep-09 23:03N 34°31' E 135°24'111.8
2018-Sep-09 23:00N 34°31' E 135°23'3 4.8
2018-Sep-09 22:26N 34°29' E 135°22'0 0.3
2018-Sep-09 22:04N 34°29' E 135°22'0 1.1
2018-Sep-09 22:00N 34°29' E 135°22'1 2.2
2018-Sep-09 21:27N 34°30' E 135°22'3 8.1
2018-Sep-09 21:03N 34°33' E 135°22'110.4
2018-Sep-09 21:00N 34°34' E 135°22'5 9.3
2018-Sep-09 20:30N 34°38' E 135°24'3 7.2
2018-Sep-09 20:02N 34°39' E 135°28'0 0.2
2018-Sep-09 20:00N 34°39' E 135°28'0 0.0
2018-Sep-09 19:31N 34°39' E 135°28'0 0.0
2018-Sep-09 19:03N 34°39' E 135°28'0 0.0
2018-Sep-09 19:00N 34°39' E 135°28'0 0.0
2018-Sep-09 18:30N 34°39' E 135°28'0 0.0
2018-Sep-09 18:03N 34°39' E 135°28'0 0.0
2018-Sep-09 18:00N 34°39' E 135°28'0 0.0
2018-Sep-09 17:31N 34°39' E 135°28'0 0.0
2018-Sep-09 17:03N 34°39' E 135°28'0 0.0
2018-Sep-09 17:00N 34°39' E 135°28'0 0.0
2018-Sep-09 16:30N 34°39' E 135°28'0 0.0
2018-Sep-09 16:03N 34°39' E 135°28'0 0.0
2018-Sep-09 16:00N 34°39' E 135°28'0 0.0
2018-Sep-09 15:30N 34°39' E 135°28'0 0.0
2018-Sep-09 15:03N 34°39' E 135°28'0 0.0
2018-Sep-09 15:00N 34°39' E 135°28'0 0.0
2018-Sep-09 14:31N 34°39' E 135°28'0 0.0
2018-Sep-09 14:00N 34°39' E 135°28'0 0.0
2018-Sep-09 13:28N 34°39' E 135°28'0 0.0
2018-Sep-09 13:04N 34°39' E 135°28'0 0.0
2018-Sep-09 13:01N 34°39' E 135°28'0 0.0
2018-Sep-09 12:30N 34°39' E 135°28'0 0.0
2018-Sep-09 12:04N 34°39' E 135°28'0 0.0
2018-Sep-09 12:01N 34°39' E 135°28'0 0.0
2018-Sep-09 11:30N 34°39' E 135°28'0 0.0
2018-Sep-09 11:04N 34°39' E 135°28'0 0.0
2018-Sep-09 11:00N 34°39' E 135°28'0 0.0
2018-Sep-09 10:30N 34°39' E 135°28'0 0.0
2018-Sep-09 10:03N 34°39' E 135°28'0 0.0
2018-Sep-09 10:00N 34°39' E 135°28'0 0.0
2018-Sep-09 09:30N 34°39' E 135°28'0 0.0
2018-Sep-09 09:03N 34°39' E 135°28'0 0.0
2018-Sep-09 09:00N 34°39' E 135°28'0 0.0
2018-Sep-09 08:31N 34°39' E 135°28'3 7.1
2018-Sep-09 08:03N 34°38' E 135°24'011.9
2018-Sep-09 08:01N 34°38' E 135°24'610.7
2018-Sep-09 07:30N 34°33' E 135°25'  
Track history (hours):
 
Tides and Currents Weather Stations Pressure Air Temp Water Temp Dewpoint Dewpoint Depression Visibility Wind Speed Wind Dir Waves Ship Positions

No 32takemaru

Last reported at 2018-Sep-19 07:09 UTC. Time now 2018-Sep-19 12:32 UTC.
Position N 34°39' E 135°28'.

Length 38 m; draft 2.8 m.

Type: Tug. MMSI: 431000341.

Date/timePositionNaut miles runAvg speedWind from/ knotsBaromVisibWave heightAir tempDewpointWater temp
2018-Sep-19 07:09N 34°39' E 135°28'0 0.0
2018-Sep-19 06:45N 34°39' E 135°28'0 0.0
2018-Sep-19 06:26N 34°39' E 135°28'0 0.0
2018-Sep-19 05:53N 34°39' E 135°28'0 0.0
2018-Sep-19 05:30N 34°39' E 135°28'0 0.0
2018-Sep-19 04:57N 34°39' E 135°28'0 0.0
2018-Sep-19 04:27N 34°39' E 135°28'0 0.0
2018-Sep-19 03:11N 34°39' E 135°28'0 0.0
2018-Sep-19 02:55N 34°39' E 135°28'0 0.0
2018-Sep-19 01:07N 34°39' E 135°28'0 6.9
2018-Sep-19 01:02N 34°39' E 135°27'0 8.7
2018-Sep-19 01:00N 34°39' E 135°27'4 8.3
2018-Sep-19 00:29N 34°36' E 135°23'3 5.8
2018-Sep-19 00:00N 34°33' E 135°25'1 1.2
2018-Sep-18 23:29N 34°33' E 135°25'3 5.4
2018-Sep-18 23:00N 34°34' E 135°22'0 0.9
2018-Sep-18 22:30N 34°34' E 135°22'5 9.5
2018-Sep-18 22:01N 34°38' E 135°24'0 9.9
2018-Sep-18 22:00N 34°38' E 135°24'3 0.4
2018-Sep-18 13:07N 34°39' E 135°28'0 0.0
2018-Sep-18 07:18N 34°39' E 135°28'0 0.0
2018-Sep-18 06:59N 34°39' E 135°28'0 0.0
2018-Sep-18 06:27N 34°39' E 135°28'0 0.0
2018-Sep-18 05:46N 34°39' E 135°28'0 0.0
2018-Sep-18 05:08N 34°39' E 135°28'0 0.0
2018-Sep-18 04:53N 34°39' E 135°28'0 0.0
2018-Sep-18 04:28N 34°39' E 135°28'0 0.0
2018-Sep-18 03:58N 34°39' E 135°28'0 0.0
2018-Sep-18 03:29N 34°39' E 135°28'0 0.0
2018-Sep-18 02:59N 34°39' E 135°28'0 0.0
2018-Sep-18 02:25N 34°39' E 135°28'1 3.1
2018-Sep-18 02:03N 34°39' E 135°27'111.1
2018-Sep-18 01:59N 34°39' E 135°26'5 9.1
2018-Sep-18 01:29N 34°35' E 135°23'2 2.8
2018-Sep-18 00:50N 34°33' E 135°25'0 0.3
2018-Sep-18 00:27N 34°33' E 135°25'0 0.0
2018-Sep-18 00:03N 34°33' E 135°25'0 0.0
2018-Sep-17 23:58N 34°33' E 135°25'1 1.3
2018-Sep-17 23:30N 34°33' E 135°24'3 6.8
2018-Sep-17 23:00N 34°33' E 135°20'0 0.7
2018-Sep-17 22:30N 34°34' E 135°20'2 4.9
2018-Sep-17 22:03N 34°36' E 135°22'110.9
2018-Sep-17 22:00N 34°36' E 135°22'5 9.4
2018-Sep-17 21:30N 34°39' E 135°27'1 1.9
2018-Sep-17 20:58N 34°39' E 135°28'0 0.0
2018-Sep-17 20:25N 34°39' E 135°28'0 0.0
2018-Sep-17 19:56N 34°39' E 135°28'0 0.0
2018-Sep-17 19:25N 34°39' E 135°28'0 0.0
2018-Sep-17 19:03N 34°39' E 135°28'0 0.0
2018-Sep-17 18:55N 34°39' E 135°28'0 0.0
2018-Sep-17 18:18N 34°39' E 135°28'0 0.0
2018-Sep-17 17:22N 34°39' E 135°28'0 0.0
2018-Sep-17 17:02N 34°39' E 135°28'0 0.0
2018-Sep-17 16:44N 34°39' E 135°28'0 0.0
2018-Sep-17 16:01N 34°39' E 135°28'0 0.0
2018-Sep-17 16:00N 34°39' E 135°28'0 0.0
2018-Sep-17 14:52N 34°39' E 135°28'0 0.0
2018-Sep-17 13:22N 34°39' E 135°28'0 0.0
2018-Sep-17 11:40N 34°39' E 135°28'0 0.0
2018-Sep-17 11:20N 34°39' E 135°28'0 0.0
2018-Sep-17 10:49N 34°39' E 135°28'0 0.0
2018-Sep-17 10:30N 34°39' E 135°28'2 3.4
2018-Sep-17 10:03N 34°39' E 135°26'010.5
2018-Sep-17 10:01N 34°39' E 135°26'5 9.2
2018-Sep-17 09:28N 34°34' E 135°23'2 5.2
2018-Sep-17 09:00N 34°32' E 135°24'2 3.8
2018-Sep-17 08:30N 34°34' E 135°24'0 0.2
2018-Sep-17 08:03N 34°34' E 135°24'110.9
2018-Sep-17 07:58N 34°33' E 135°24'0 0.5
2018-Sep-17 07:24N 34°33' E 135°23'1 1.3
2018-Sep-17 06:57N 34°33' E 135°23'2 0.5
2018-Sep-17 02:38N 34°31' E 135°24'1 3.5
2018-Sep-17 02:28N 34°32' E 135°24'1 2.4
2018-Sep-17 02:00N 34°33' E 135°23'0 0.6
2018-Sep-17 01:30N 34°33' E 135°23'0 0.2
2018-Sep-17 00:59N 34°33' E 135°23'5 9.5
2018-Sep-17 00:30N 34°38' E 135°23'4 8.2
2018-Sep-17 00:02N 34°39' E 135°28'0 0.0
2018-Sep-17 00:00N 34°39' E 135°28'0 0.0
2018-Sep-16 23:27N 34°39' E 135°28'0 0.0
2018-Sep-16 22:56N 34°39' E 135°28'0 0.0
2018-Sep-16 22:25N 34°39' E 135°28'0 0.0
2018-Sep-16 21:59N 34°39' E 135°28'0 0.0
2018-Sep-16 21:24N 34°39' E 135°28'0 0.0
2018-Sep-16 20:58N 34°39' E 135°28'0 0.0
2018-Sep-16 20:29N 34°39' E 135°28'0 0.0
2018-Sep-16 19:56N 34°39' E 135°28'0 0.0
2018-Sep-16 19:26N 34°39' E 135°28'0 0.0
2018-Sep-16 12:45N 34°39' E 135°28'0 0.0
2018-Sep-16 12:21N 34°39' E 135°28'0 0.0
2018-Sep-16 11:03N 34°39' E 135°28'0 0.0
2018-Sep-16 06:16N 34°39' E 135°28'0 0.0
2018-Sep-16 06:04N 34°39' E 135°28'0 0.0
2018-Sep-16 05:58N 34°39' E 135°28'0 0.0
2018-Sep-16 05:23N 34°39' E 135°28'0 0.0
2018-Sep-16 04:22N 34°39' E 135°28'0 0.0
2018-Sep-16 04:03N 34°39' E 135°28'0 0.0
2018-Sep-16 03:59N 34°39' E 135°28'0 0.0
2018-Sep-16 02:43N 34°39' E 135°28'0 0.0
2018-Sep-16 02:27N 34°39' E 135°28'0 0.0
2018-Sep-16 02:02N 34°39' E 135°28'0 0.1
2018-Sep-16 01:41N 34°39' E 135°28'1 7.8
2018-Sep-16 01:31N 34°39' E 135°26'4 9.2
2018-Sep-16 01:03N 34°35' E 135°23'111.8
2018-Sep-16 01:00N 34°35' E 135°23'3 6.7
2018-Sep-16 00:30N 34°31' E 135°25'0 0.3
2018-Sep-16 00:03N 34°31' E 135°25'0 0.1
2018-Sep-16 00:00N 34°31' E 135°25'3 5.2
2018-Sep-15 23:27N 34°34' E 135°24'410.3
2018-Sep-15 23:03N 34°38' E 135°24'110.2
2018-Sep-15 23:00N 34°38' E 135°24'3 6.7
2018-Sep-15 22:31N 34°39' E 135°28'0 0.0
2018-Sep-15 22:00N 34°39' E 135°28'0 0.0
2018-Sep-15 21:31N 34°39' E 135°28'0 0.0
2018-Sep-15 21:03N 34°39' E 135°28'0 0.0
2018-Sep-15 20:57N 34°39' E 135°28'0 0.0
2018-Sep-15 20:28N 34°39' E 135°28'0 0.0
2018-Sep-15 20:03N 34°39' E 135°28'0 0.0
2018-Sep-15 19:59N 34°39' E 135°28'0 0.0
2018-Sep-15 19:27N 34°39' E 135°28'0 0.0
2018-Sep-15 18:54N 34°39' E 135°28'0 0.0
2018-Sep-15 18:30N 34°39' E 135°28'0 0.0
2018-Sep-15 18:04N 34°39' E 135°28'0 0.0
2018-Sep-15 18:00N 34°39' E 135°28'0 0.0
2018-Sep-15 17:31N 34°39' E 135°28'0 0.0
2018-Sep-15 16:53N 34°39' E 135°28'0 0.0
2018-Sep-15 16:23N 34°39' E 135°28'0 0.0
2018-Sep-15 15:59N 34°39' E 135°28'0 0.0
2018-Sep-15 15:29N 34°39' E 135°28'0 0.0
2018-Sep-15 14:51N 34°39' E 135°28'0 0.0
2018-Sep-15 14:20N 34°39' E 135°28'0 0.0
2018-Sep-15 13:47N 34°39' E 135°28'0 0.0
2018-Sep-15 13:12N 34°39' E 135°28'0 0.0
2018-Sep-15 12:54N 34°39' E 135°28'0 0.0
2018-Sep-15 12:29N 34°39' E 135°28'0 0.0
2018-Sep-15 12:02N 34°39' E 135°28'0 0.0
2018-Sep-15 12:00N 34°39' E 135°28'0 0.0
2018-Sep-15 11:25N 34°39' E 135°28'0 0.0
2018-Sep-15 11:02N 34°39' E 135°28'0 0.0
2018-Sep-15 10:57N 34°39' E 135°28'0 0.0
2018-Sep-15 10:29N 34°39' E 135°28'0 0.0
2018-Sep-15 09:56N 34°39' E 135°28'0 0.0
2018-Sep-15 09:21N 34°39' E 135°28'0 0.0
2018-Sep-15 09:02N 34°39' E 135°28'0 0.0
2018-Sep-15 09:00N 34°39' E 135°28'0 0.0
2018-Sep-15 08:07N 34°39' E 135°28'0 0.0
2018-Sep-15 08:03N 34°39' E 135°28'0 0.0
2018-Sep-15 07:56N 34°39' E 135°28'1 0.9
2018-Sep-15 06:46N 34°38' E 135°27'0 0.0
2018-Sep-15 06:30N 34°38' E 135°27'0 0.0
2018-Sep-15 06:03N 34°38' E 135°27'0 0.0
2018-Sep-15 06:00N 34°38' E 135°27'1 2.1
2018-Sep-15 05:29N 34°39' E 135°26'511.4
2018-Sep-15 05:03N 34°39' E 135°20'0 1.1
2018-Sep-15 05:00N 34°39' E 135°20'3 6.1
2018-Sep-15 04:29N 34°36' E 135°18'3 6.6
2018-Sep-15 04:03N 34°34' E 135°16'0 7.0
2018-Sep-15 04:01N 34°33' E 135°15'3 6.8
2018-Sep-15 03:30N 34°31' E 135°13'3 7.0
2018-Sep-15 03:03N 34°28' E 135°11'0 7.0
2018-Sep-15 03:00N 34°28' E 135°10'3 6.9
2018-Sep-15 02:30N 34°25' E 135°08'3 6.3
2018-Sep-15 02:03N 34°23' E 135°10'0 6.5
2018-Sep-15 01:59N 34°22' E 135°11'3 5.2
2018-Sep-15 01:28N 34°23' E 135°14'2 5.9
2018-Sep-15 01:04N 34°25' E 135°15'0 5.3
2018-Sep-15 01:00N 34°25' E 135°16'1 1.3
2018-Sep-15 00:28N 34°26' E 135°16'0 0.1
2018-Sep-15 00:03N 34°26' E 135°16'0 0.0
2018-Sep-15 00:01N 34°26' E 135°16'0 0.0
2018-Sep-14 23:31N 34°26' E 135°16'0 0.2
2018-Sep-14 23:03N 34°26' E 135°16'0 1.8
2018-Sep-14 23:00N 34°26' E 135°16'0 0.0
2018-Sep-14 22:30N 34°26' E 135°16'0 0.0
2018-Sep-14 22:03N 34°26' E 135°16'0 0.1
2018-Sep-14 21:59N 34°26' E 135°16'0 0.0
2018-Sep-14 21:30N 34°26' E 135°16'0 0.0
2018-Sep-14 21:03N 34°26' E 135°16'0 0.1
2018-Sep-14 21:01N 34°26' E 135°16'0 0.0
2018-Sep-14 20:30N 34°26' E 135°16'0 0.0
2018-Sep-14 20:02N 34°26' E 135°16'0 0.1
2018-Sep-14 19:57N 34°26' E 135°16'0 0.1
2018-Sep-14 19:30N 34°26' E 135°16'0 0.1
2018-Sep-14 18:53N 34°26' E 135°16'0 0.0
2018-Sep-14 18:27N 34°26' E 135°16'0 0.0
2018-Sep-14 18:03N 34°26' E 135°16'0 0.0
2018-Sep-14 17:59N 34°26' E 135°16'0 0.0
2018-Sep-14 17:30N 34°26' E 135°16'0 0.0
2018-Sep-14 17:02N 34°26' E 135°16'0 0.0
2018-Sep-14 17:00N 34°26' E 135°16'0 0.0
2018-Sep-14 16:21N 34°26' E 135°16'0 0.0
2018-Sep-14 16:02N 34°26' E 135°16'0 0.0
2018-Sep-14 16:01N 34°26' E 135°16'0 0.0
2018-Sep-14 15:30N 34°26' E 135°16'0 0.0
2018-Sep-14 15:03N 34°26' E 135°16'0 0.0
2018-Sep-14 15:01N 34°26' E 135°16'0 0.1
2018-Sep-14 14:30N 34°26' E 135°16'0 0.0
2018-Sep-14 13:59N 34°26' E 135°16'0 0.0
2018-Sep-14 13:31N 34°26' E 135°16'0 0.0
2018-Sep-14 13:03N 34°26' E 135°16'0 0.8
2018-Sep-14 13:00N 34°26' E 135°16'0 0.1
2018-Sep-14 12:31N 34°26' E 135°16'0 0.0
2018-Sep-14 12:03N 34°26' E 135°16'0 1.0
2018-Sep-14 12:00N 34°26' E 135°16'0 0.0
2018-Sep-14 11:31N 34°26' E 135°16'0 0.1
2018-Sep-14 11:03N 34°26' E 135°16'0 0.0
2018-Sep-14 11:00N 34°26' E 135°16'0 0.0
2018-Sep-14 10:28N 34°26' E 135°16'0 0.1
2018-Sep-14 10:03N 34°26' E 135°16'0 0.0
2018-Sep-14 10:00N 34°26' E 135°16'0 0.0
2018-Sep-14 09:31N 34°26' E 135°16'0 0.0
2018-Sep-14 09:04N 34°26' E 135°16'0 0.1
2018-Sep-14 08:59N 34°26' E 135°16'0 0.0
2018-Sep-14 08:29N 34°26' E 135°16'0 0.1
2018-Sep-14 08:03N 34°26' E 135°16'0 0.0
2018-Sep-14 07:59N 34°26' E 135°16'0 0.1
2018-Sep-14 07:28N 34°26' E 135°16'0 0.0
2018-Sep-14 07:02N 34°26' E 135°16'0 0.0
2018-Sep-14 06:58N 34°26' E 135°16'0 0.1
2018-Sep-14 06:30N 34°26' E 135°16'0 0.0
2018-Sep-14 06:01N 34°26' E 135°16'0 0.4
2018-Sep-14 06:00N 34°26' E 135°16'0 0.1
2018-Sep-14 05:30N 34°26' E 135°16'0 0.1
2018-Sep-14 05:03N 34°26' E 135°16'0 0.0
2018-Sep-14 05:00N 34°26' E 135°16'0 0.0
2018-Sep-14 04:17N 34°26' E 135°16'0 0.1
2018-Sep-14 04:03N 34°26' E 135°16'0 0.0
2018-Sep-14 03:57N 34°26' E 135°16'0 0.1
2018-Sep-14 03:27N 34°26' E 135°16'0 0.0
2018-Sep-14 03:02N 34°26' E 135°16'0 0.0
2018-Sep-14 02:59N 34°26' E 135°16'0 0.0
2018-Sep-14 02:31N 34°26' E 135°16'0 0.0
2018-Sep-14 02:02N 34°26' E 135°16'0 0.1
2018-Sep-14 01:58N 34°26' E 135°16'0 0.1
2018-Sep-14 01:29N 34°26' E 135°16'0 0.1
2018-Sep-14 00:59N 34°26' E 135°16'0 0.1
2018-Sep-14 00:25N 34°26' E 135°16'0 0.0
2018-Sep-13 23:55N 34°26' E 135°16'0 0.0
2018-Sep-13 23:26N 34°26' E 135°16'0 0.0
2018-Sep-13 23:03N 34°26' E 135°16'0 1.1
2018-Sep-13 23:01N 34°26' E 135°16'0 0.0
2018-Sep-13 22:30N 34°26' E 135°16'0 0.0
2018-Sep-13 22:03N 34°26' E 135°16'0 0.0
2018-Sep-13 22:01N 34°26' E 135°16'0 0.0
2018-Sep-13 21:30N 34°26' E 135°16'0 0.0
2018-Sep-13 21:03N 34°26' E 135°16'0 0.0
2018-Sep-13 21:00N 34°26' E 135°16'0 0.0
2018-Sep-13 20:28N 34°26' E 135°16'0 0.0
2018-Sep-13 20:03N 34°26' E 135°16'0 0.0
2018-Sep-13 20:00N 34°26' E 135°16'0 0.0
2018-Sep-13 19:30N 34°26' E 135°16'0 0.0
2018-Sep-13 19:03N 34°26' E 135°16'0 0.1
2018-Sep-13 19:00N 34°26' E 135°16'0 0.0
2018-Sep-13 18:29N 34°26' E 135°16'0 0.0
2018-Sep-13 18:04N 34°26' E 135°16'0 0.0
2018-Sep-13 17:59N 34°26' E 135°16'0 0.0
2018-Sep-13 17:30N 34°26' E 135°16'0 0.0
2018-Sep-13 17:03N 34°26' E 135°16'0 0.0
2018-Sep-13 17:00N 34°26' E 135°16'0 0.0
2018-Sep-13 16:30N 34°26' E 135°16'0 0.0
2018-Sep-13 16:01N 34°26' E 135°16'0 0.0
2018-Sep-13 15:59N 34°26' E 135°16'0 0.0
2018-Sep-13 15:31N 34°26' E 135°16'0 0.0
2018-Sep-13 15:03N 34°26' E 135°16'0 0.0
2018-Sep-13 15:01N 34°26' E 135°16'0 0.0
2018-Sep-13 14:29N 34°26' E 135°16'0 0.0
2018-Sep-13 14:00N 34°26' E 135°16'0 0.0
2018-Sep-13 13:31N 34°26' E 135°16'0 0.0
2018-Sep-13 13:01N 34°26' E 135°16'0 0.0
2018-Sep-13 13:00N 34°26' E 135°16'0 0.0
2018-Sep-13 12:30N 34°26' E 135°16'0 0.0
2018-Sep-13 12:03N 34°26' E 135°16'0 0.0
2018-Sep-13 11:59N 34°26' E 135°16'0 0.0
2018-Sep-13 11:30N 34°26' E 135°16'0 0.0
2018-Sep-13 10:56N 34°26' E 135°16'0 0.0
2018-Sep-13 10:28N 34°26' E 135°16'0 0.0
2018-Sep-13 10:04N 34°26' E 135°16'0 0.0
2018-Sep-13 10:01N 34°26' E 135°16'0 0.0
2018-Sep-13 09:29N 34°26' E 135°16'0 0.0
2018-Sep-13 09:03N 34°26' E 135°16'0 0.0
2018-Sep-13 08:49N 34°26' E 135°16'0 0.0
2018-Sep-13 08:29N 34°26' E 135°16'0 0.0
2018-Sep-13 07:59N 34°26' E 135°16'0 0.0
2018-Sep-13 07:31N 34°26' E 135°16'0 0.0
2018-Sep-13 07:02N 34°26' E 135°16'0 0.0
2018-Sep-13 06:59N 34°26' E 135°16'0 0.1
2018-Sep-13 06:28N 34°26' E 135°16'0 0.0
2018-Sep-13 05:35N 34°26' E 135°16'0 0.0
2018-Sep-13 05:23N 34°26' E 135°16'0 0.0
2018-Sep-13 05:03N 34°26' E 135°16'0 0.0
2018-Sep-13 05:00N 34°26' E 135°16'0 0.0
2018-Sep-13 04:30N 34°26' E 135°16'0 0.0
2018-Sep-13 04:03N 34°26' E 135°16'0 0.1
2018-Sep-13 04:01N 34°26' E 135°16'0 0.0
2018-Sep-13 03:30N 34°26' E 135°16'0 0.0
2018-Sep-13 03:03N 34°26' E 135°16'0 0.0
2018-Sep-13 03:01N 34°26' E 135°16'0 0.0
2018-Sep-13 02:31N 34°26' E 135°16'0 0.0
2018-Sep-13 01:59N 34°26' E 135°16'0 0.0
2018-Sep-13 01:30N 34°26' E 135°16'0 0.0
2018-Sep-13 01:03N 34°26' E 135°16'0 0.0
2018-Sep-13 01:00N 34°26' E 135°16'0 0.0
2018-Sep-13 00:31N 34°26' E 135°16'0 0.0
2018-Sep-13 00:04N 34°26' E 135°16'0 0.1
2018-Sep-13 00:01N 34°26' E 135°16'0 0.0
2018-Sep-12 23:26N 34°26' E 135°16'0 0.0
2018-Sep-12 08:05N 34°26' E 135°16'0 0.0
2018-Sep-12 07:56N 34°26' E 135°16'0 0.0
2018-Sep-12 07:11N 34°26' E 135°16'0 0.0
2018-Sep-12 07:03N 34°26' E 135°16'0 0.0
2018-Sep-12 07:00N 34°26' E 135°16'0 0.0
2018-Sep-12 06:30N 34°26' E 135°16'0 0.0
2018-Sep-12 06:00N 34°26' E 135°16'0 0.0
2018-Sep-12 05:10N 34°26' E 135°16'0 0.0
2018-Sep-12 05:03N 34°26' E 135°16'0 0.0
2018-Sep-12 04:58N 34°26' E 135°16'0 0.1
2018-Sep-12 04:16N 34°26' E 135°16'0 0.0
2018-Sep-12 03:57N 34°26' E 135°16'0 0.0
2018-Sep-12 02:45N 34°26' E 135°16'0 0.2
2018-Sep-12 02:18N 34°26' E 135°16'0 0.2
2018-Sep-12 02:03N 34°26' E 135°16'0 0.0
2018-Sep-12 02:00N 34°26' E 135°16'0 0.0
2018-Sep-12 01:24N 34°26' E 135°16'0 0.1
2018-Sep-12 01:02N 34°26' E 135°16'0 0.5
2018-Sep-12 00:56N 34°26' E 135°16'1 3.1
2018-Sep-12 00:29N 34°25' E 135°15'2 5.4
2018-Sep-12 00:03N 34°23' E 135°13'0 6.2
2018-Sep-12 00:00N 34°23' E 135°13'2 4.8
2018-Sep-11 23:30N 34°23' E 135°10'2 5.1
2018-Sep-11 23:03N 34°24' E 135°08'0 4.8
2018-Sep-11 23:00N 34°25' E 135°08'3 5.0
2018-Sep-11 22:30N 34°27' E 135°08'2 5.0
2018-Sep-11 22:02N 34°29' E 135°10'0 4.3
2018-Sep-11 22:00N 34°29' E 135°10'2 4.9
2018-Sep-11 21:30N 34°31' E 135°12'2 4.9
2018-Sep-11 21:03N 34°33' E 135°14'0 4.5
2018-Sep-11 20:58N 34°33' E 135°14'2 4.7
2018-Sep-11 20:29N 34°35' E 135°15'2 4.4
2018-Sep-11 20:00N 34°37' E 135°16'4 4.4
2018-Sep-11 19:11N 34°40' E 135°15'1 0.5
2018-Sep-11 17:44N 34°41' E 135°15'8 0.7
2018-Sep-11 06:26N 34°38' E 135°23'5 7.4
2018-Sep-11 05:48N 34°34' E 135°26'0 0.0
2018-Sep-11 05:10N 34°34' E 135°26'0 0.2
2018-Sep-11 05:00N 34°33' E 135°26'1 0.8
2018-Sep-11 03:46N 34°33' E 135°25'2 0.1
2018-Sep-09 23:05N 34°31' E 135°24'0 9.9
2018-Sep-09 23:03N 34°31' E 135°24'111.8
2018-Sep-09 23:00N 34°31' E 135°23'3 4.8
2018-Sep-09 22:26N 34°29' E 135°22'0 0.3
2018-Sep-09 22:04N 34°29' E 135°22'0 1.1
2018-Sep-09 22:00N 34°29' E 135°22'1 2.2
2018-Sep-09 21:27N 34°30' E 135°22'3 8.1
2018-Sep-09 21:03N 34°33' E 135°22'110.4
2018-Sep-09 21:00N 34°34' E 135°22'5 9.3
2018-Sep-09 20:30N 34°38' E 135°24'3 7.2
2018-Sep-09 20:02N 34°39' E 135°28'0 0.2
2018-Sep-09 20:00N 34°39' E 135°28'0 0.0
2018-Sep-09 19:31N 34°39' E 135°28'0 0.0
2018-Sep-09 19:03N 34°39' E 135°28'0 0.0
2018-Sep-09 19:00N 34°39' E 135°28'0 0.0
2018-Sep-09 18:30N 34°39' E 135°28'0 0.0
2018-Sep-09 18:03N 34°39' E 135°28'0 0.0
2018-Sep-09 18:00N 34°39' E 135°28'0 0.0
2018-Sep-09 17:31N 34°39' E 135°28'0 0.0
2018-Sep-09 17:03N 34°39' E 135°28'0 0.0
2018-Sep-09 17:00N 34°39' E 135°28'0 0.0
2018-Sep-09 16:30N 34°39' E 135°28'0 0.0
2018-Sep-09 16:03N 34°39' E 135°28'0 0.0
2018-Sep-09 16:00N 34°39' E 135°28'0 0.0
2018-Sep-09 15:30N 34°39' E 135°28'0 0.0
2018-Sep-09 15:03N 34°39' E 135°28'0 0.0
2018-Sep-09 15:00N 34°39' E 135°28'0 0.0
2018-Sep-09 14:31N 34°39' E 135°28'0 0.0
2018-Sep-09 14:00N 34°39' E 135°28'0 0.0
2018-Sep-09 13:28N 34°39' E 135°28'0 0.0
2018-Sep-09 13:04N 34°39' E 135°28'0 0.0
2018-Sep-09 13:01N 34°39' E 135°28'0 0.0
2018-Sep-09 12:30N 34°39' E 135°28'0 0.0
2018-Sep-09 12:04N 34°39' E 135°28'0 0.0
2018-Sep-09 12:01N 34°39' E 135°28'0 0.0
2018-Sep-09 11:30N 34°39' E 135°28'0 0.0
2018-Sep-09 11:04N 34°39' E 135°28'0 0.0
2018-Sep-09 11:00N 34°39' E 135°28'0 0.0
2018-Sep-09 10:30N 34°39' E 135°28'0 0.0
2018-Sep-09 10:03N 34°39' E 135°28'0 0.0
2018-Sep-09 10:00N 34°39' E 135°28'0 0.0
2018-Sep-09 09:30N 34°39' E 135°28'0 0.0
2018-Sep-09 09:03N 34°39' E 135°28'0 0.0
2018-Sep-09 09:00N 34°39' E 135°28'0 0.0
2018-Sep-09 08:31N 34°39' E 135°28'3 7.1
2018-Sep-09 08:03N 34°38' E 135°24'011.9
2018-Sep-09 08:01N 34°38' E 135°24'610.7
2018-Sep-09 07:30N 34°33' E 135°25'  

Dump ship's entire track history